Denali National Park, AK

3:23 AM AKDT on October 25, 2014 (GMT -0800)
RAWS MCKINLEY RIVER AK US | Change Station
CLOSE
Current Station
Personal Weather Station
Location: Denali National Park, AK
Elevation: 862 ft
Nearby Weather Stations

Elev 862 ft 63.65 °N, 151.64 °W | Updated 33 minutes ago

Mostly Cloudy
Mostly Cloudy
25 °F
Feels Like 25 °F
N
0
Wind Variable Wind from North
Gusts 4.0 mph

Today
High -- | Low -- °F
--% Chance of Precip.
Yesterday
High -- | Low -- °F
Precip. -- in
9:22 AM 6:11 PM
Waxing Crescent, 3% visible
Pressure 29.96 in
Visibility 10.0 miles
Clouds
Windchill 25 °F
Dew Point 23 °F
Humidity 91%
Rainfall 0.00 in
Snow Depth Not available.
UV Not available.
Pollen Not available.
Air Quality Not available.
Flu Activity Local Activity
METAR PAMH 251116Z AUTO 00000KT 10SM M04/M06 A2996 RMK AO1

More Conditions Fewer Conditions

Pressure 29.96 in
Visibility 10.0 miles
Clouds
Windchill 25 °F
Dew Point 23 °F
Humidity 91%
Rainfall 0.00 in
Snow Depth Not available.
UV Not available.
Pollen Not available.
Air Quality Not available.
Flu Activity Local Activity
METAR PAMH 251116Z AUTO 00000KT 10SM M04/M06 A2996 RMK AO1

More Conditions Fewer Conditions

10-Day Weather Forecast

Almanac

Astronomy

Oct. 25, 2014 Rise Set
Actual Time 9:22 AM AKDT 6:11 PM AKDT
Civil Twilight 8:32 AM AKDT 7:01 PM AKDT
Nautical Twilight 7:37 AM AKDT 7:55 PM AKDT
Astronomical Twilight 6:43 AM AKDT 8:49 PM AKDT
Moon 11:44 AM AKDT 7:06 PM AKDT
Length of Visible Light 10h 28m
Length of Day
8h 48m
Tomorrow will be 6m 19s shorter.
Waxing Crescent, 3% of the Moon is Illuminated
Today
Waxing Crescent
Oct 30
First Quarter
Nov 6
Full
Nov 14
Last Quarter
Nov 22
New

Today's Extremes

State Highs State Lows

Community

WunderPhotos

Upload Photos

1,764,810 photos uploaded!

Nearby

Snow Depth

Station Depth Elevation
Susitna Valley High 0 in 375 ft
Point Mackenzie 1 in 200 ft
Little Chena Ridge 5 in 2000 ft
Munson Ridge 11 in 3100 ft
Granite Creek 7 in 1240 ft

Earthquake Activity

City Distance Mag. Time & Date
No recent earthquake activity has been reported nearby.
Minimum magnitude displayed is 2.5.

Coastal Water Temperatures

Place Temperature
No Stations Reporting

Nearby Weather Stations